Nimbus Weather Services

Informe meteorológico para Carrasco, Uruguay. El informe se hizo hace 16 minutos, a las 22:00 UTC. El viento soplaba a una velocidad de 4.6 m/s (10.4 millas por hora) del este-sureste (120°). La temperatura era 20 °C (68 °F), con un punto de rocío de 4 °C (39 °F). La presión atmosférica era 1014 hPa (29.94 inHg). Había una humedad relativa del 34.8%. Cielo: sin nubes por debajo de 1500 metros (5000 pies) y sin presencia de cumulusnimbos. En aquel momento la visibilidad global era mayor de 10 kilómetros (6.2 millas).

La clave METAR es: SUMU 132200Z 12009KT CAVOK 20/04 Q1014 NOSIG

Consulta realizada el Viernes 13 de Diciembre de 2019 19:15. Tiempo usado para generar esta pagina:7,717 ms.